createdAt,value
2018-03-02T00:00:53.703Z,9.60
2018-03-02T00:03:32.370Z,9.60
2018-03-02T00:06:10.842Z,9.70
2018-03-02T00:08:49.359Z,9.60
2018-03-02T00:11:29.005Z,9.70
2018-03-02T00:14:07.899Z,9.50
2018-03-02T00:16:46.620Z,9.60
2018-03-02T00:19:26.608Z,9.70
2018-03-02T00:22:05.226Z,9.70
2018-03-02T00:24:43.818Z,9.70
2018-03-02T00:27:26.556Z,9.60
2018-03-02T00:30:06.300Z,9.70
2018-03-02T00:32:46.668Z,9.70
2018-03-02T00:35:30.451Z,9.20
2018-03-02T00:38:10.289Z,8.80
2018-03-02T00:40:49.027Z,8.40
2018-03-02T00:43:28.567Z,8.50
2018-03-02T00:46:07.302Z,7.90
2018-03-02T00:48:46.485Z,8.10
2018-03-02T00:51:27.158Z,7.60
2018-03-02T00:54:09.390Z,7.50
2018-03-02T00:56:49.199Z,7.30
2018-03-02T00:59:27.590Z,7.50
2018-03-02T01:02:07.287Z,7.20
2018-03-02T01:04:49.579Z,7.20
2018-03-02T01:07:28.768Z,7.20
2018-03-02T01:10:07.165Z,7.20
2018-03-02T01:12:45.729Z,7.10
2018-03-02T01:15:25.371Z,6.90
2018-03-02T01:18:03.926Z,7.00
2018-03-02T01:20:42.185Z,6.80
2018-03-02T01:23:20.371Z,6.80
2018-03-02T01:25:59.873Z,6.90
2018-03-02T01:28:38.809Z,6.90
2018-03-02T01:31:17.708Z,6.80
2018-03-02T01:33:56.414Z,6.80
2018-03-02T01:36:37.818Z,6.90
2018-03-02T01:39:16.079Z,6.80
2018-03-02T01:41:54.893Z,7.00
2018-03-02T01:44:34.479Z,6.70
2018-03-02T01:47:16.221Z,6.90
2018-03-02T01:49:54.956Z,6.80
2018-03-02T01:52:33.767Z,6.80
2018-03-02T01:55:14.417Z,6.90
2018-03-02T01:57:53.293Z,6.90
2018-03-02T02:00:33.682Z,6.90
2018-03-02T02:03:12.393Z,7.00
2018-03-02T02:05:53.573Z,6.80
2018-03-02T02:08:33.653Z,6.80
2018-03-02T02:11:11.016Z,6.90
2018-03-02T02:13:49.614Z,6.80
2018-03-02T02:16:27.716Z,6.60
2018-03-02T02:19:10.165Z,6.50
2018-03-02T02:21:51.657Z,6.80
2018-03-02T02:24:30.537Z,6.60
2018-03-02T02:27:08.972Z,6.90
2018-03-02T02:29:47.649Z,6.50
2018-03-02T02:32:26.245Z,6.60
2018-03-02T02:35:05.756Z,6.50
2018-03-02T02:37:44.256Z,6.60
2018-03-02T02:40:22.052Z,6.60
2018-03-02T02:43:02.210Z,6.50
2018-03-02T02:45:43.180Z,6.40
2018-03-02T02:48:22.253Z,6.50
2018-03-02T02:51:18.087Z,6.40
2018-03-02T02:53:57.987Z,6.50
2018-03-02T02:56:36.713Z,6.40
2018-03-02T02:59:16.762Z,6.40
2018-03-02T03:01:56.923Z,6.40
2018-03-02T03:07:19.744Z,6.30
2018-03-02T03:10:00.337Z,6.50
2018-03-02T03:12:38.772Z,6.50
2018-03-02T03:15:18.202Z,6.50
2018-03-02T03:17:56.751Z,6.60
2018-03-02T03:20:35.696Z,6.20
2018-03-02T03:23:14.358Z,6.10
2018-03-02T03:25:56.115Z,6.30
2018-03-02T03:28:39.007Z,6.30
2018-03-02T03:31:19.479Z,6.30
2018-03-02T03:34:03.023Z,6.50
2018-03-02T03:36:43.085Z,6.30
2018-03-02T03:39:23.748Z,6.50
2018-03-02T03:42:02.506Z,6.20
2018-03-02T03:44:41.154Z,6.30
2018-03-02T03:47:20.102Z,6.30
2018-03-02T03:49:59.243Z,6.50
2018-03-02T03:52:38.945Z,6.10
2018-03-02T03:55:17.845Z,6.20
2018-03-02T03:57:58.592Z,6.30
2018-03-02T04:00:39.010Z,6.30
2018-03-02T04:03:18.103Z,6.10
2018-03-02T04:05:56.796Z,6.20
2018-03-02T04:08:36.366Z,6.30
2018-03-02T04:11:14.891Z,6.20
2018-03-02T04:13:53.353Z,6.30
2018-03-02T04:16:33.823Z,6.50
2018-03-02T04:19:14.308Z,6.60
2018-03-02T04:21:55.739Z,6.20
2018-03-02T04:24:35.447Z,6.20
2018-03-02T04:27:15.198Z,6.20
2018-03-02T04:29:54.774Z,6.30
2018-03-02T04:32:34.237Z,6.20
2018-03-02T04:35:12.891Z,6.00
2018-03-02T04:37:51.365Z,6.30
2018-03-02T04:40:30.919Z,5.90
2018-03-02T04:43:11.430Z,5.80
2018-03-02T04:45:51.951Z,6.00
2018-03-02T04:48:32.697Z,5.80
2018-03-02T04:51:11.076Z,5.90
2018-03-02T04:53:49.598Z,5.70
2018-03-02T04:56:29.428Z,5.40
2018-03-02T04:59:09.051Z,5.50
2018-03-02T05:01:50.008Z,5.60
2018-03-02T05:04:28.784Z,5.60
2018-03-02T05:07:08.823Z,5.60
2018-03-02T05:09:47.808Z,5.60
2018-03-02T05:12:28.006Z,5.70
2018-03-02T05:15:07.876Z,5.70
2018-03-02T05:17:48.460Z,5.50
2018-03-02T05:20:27.079Z,5.60
2018-03-02T05:23:05.619Z,5.60
2018-03-02T05:25:44.187Z,5.50
2018-03-02T05:28:25.647Z,5.60
2018-03-02T05:31:06.559Z,5.40
2018-03-02T05:33:45.182Z,5.60
2018-03-02T05:36:24.145Z,5.60
2018-03-02T05:39:02.864Z,5.30
2018-03-02T05:41:43.654Z,5.20
2018-03-02T05:44:24.300Z,5.20
2018-03-02T05:47:05.919Z,5.40
2018-03-02T05:49:45.632Z,5.40
2018-03-02T05:52:24.468Z,5.30
2018-03-02T05:55:02.750Z,5.20
2018-03-02T05:57:42.492Z,5.40
2018-03-02T06:00:22.119Z,5.40
2018-03-02T06:03:01.978Z,5.40
2018-03-02T06:05:41.851Z,5.30
2018-03-02T06:08:22.833Z,5.30
2018-03-02T06:11:02.448Z,5.30
2018-03-02T06:13:40.945Z,5.10
2018-03-02T06:16:22.548Z,5.30
2018-03-02T06:19:02.104Z,5.30
2018-03-02T06:21:41.998Z,5.30
2018-03-02T06:24:21.746Z,5.30
2018-03-02T06:27:01.641Z,5.00
2018-03-02T06:29:43.684Z,5.10
2018-03-02T06:32:23.260Z,5.10
2018-03-02T06:35:02.078Z,5.10
2018-03-02T06:37:41.032Z,5.10
2018-03-02T06:40:19.884Z,5.00
2018-03-02T06:42:58.418Z,4.90
2018-03-02T06:45:38.207Z,5.10
2018-03-02T06:48:18.778Z,5.00
2018-03-02T06:50:59.427Z,5.10
2018-03-02T06:53:38.501Z,4.90
2018-03-02T06:56:18.877Z,4.70
2018-03-02T06:58:57.457Z,5.00
2018-03-02T07:01:39.107Z,4.90
2018-03-02T07:04:18.951Z,5.00
2018-03-02T07:06:57.401Z,4.70
2018-03-02T07:09:36.981Z,4.80
2018-03-02T07:12:15.502Z,4.70
2018-03-02T07:14:58.329Z,4.70
2018-03-02T07:17:38.856Z,4.80
2018-03-02T07:20:18.596Z,4.40
2018-03-02T07:22:57.438Z,4.50
2018-03-02T07:25:36.003Z,4.70
2018-03-02T07:28:15.628Z,4.70
2018-03-02T07:30:57.367Z,4.40
2018-03-02T07:33:38.101Z,4.60
2018-03-02T07:36:17.690Z,4.40
2018-03-02T07:38:56.405Z,4.40
2018-03-02T07:41:35.266Z,4.70
2018-03-02T07:44:13.964Z,4.40
2018-03-02T07:46:52.447Z,4.20
2018-03-02T07:49:31.941Z,4.10
2018-03-02T07:52:13.564Z,4.10
2018-03-02T07:54:53.419Z,4.20
2018-03-02T07:57:34.020Z,4.10
2018-03-02T08:00:13.730Z,4.10
2018-03-02T08:02:54.411Z,4.10
2018-03-02T08:05:33.065Z,4.10
2018-03-02T08:08:12.749Z,4.20
2018-03-02T08:10:54.352Z,4.10
2018-03-02T08:13:33.108Z,4.20
2018-03-02T08:16:11.759Z,4.10
2018-03-02T08:18:51.244Z,4.10
2018-03-02T08:21:29.660Z,4.10
2018-03-02T08:24:08.009Z,4.20
2018-03-02T08:26:46.792Z,4.10
2018-03-02T08:29:25.427Z,4.10
2018-03-02T08:32:06.288Z,4.40
2018-03-02T08:34:44.904Z,4.40
2018-03-02T08:37:23.299Z,4.10
2018-03-02T08:40:02.165Z,4.10
2018-03-02T08:42:44.702Z,4.10
2018-03-02T08:45:24.364Z,4.40
2018-03-02T08:48:03.005Z,4.30
2018-03-02T08:50:41.414Z,4.30
2018-03-02T08:53:22.200Z,4.40
2018-03-02T08:56:01.087Z,4.20
2018-03-02T08:58:40.836Z,4.20
2018-03-02T09:01:21.302Z,4.40
2018-03-02T09:04:00.912Z,4.10
2018-03-02T09:06:42.424Z,4.60
2018-03-02T09:09:20.587Z,4.10
2018-03-02T09:12:02.539Z,4.30
2018-03-02T09:14:41.034Z,4.30
2018-03-02T09:17:20.105Z,4.60
2018-03-02T09:20:01.834Z,4.30
2018-03-02T09:22:40.680Z,4.40
2018-03-02T09:25:20.543Z,4.60
2018-03-02T09:27:59.007Z,4.40
2018-03-02T09:30:36.728Z,4.20
2018-03-02T09:33:15.315Z,4.10
2018-03-02T09:35:55.930Z,4.20
2018-03-02T09:38:33.621Z,4.30
2018-03-02T09:41:12.141Z,4.10
2018-03-02T09:43:51.737Z,4.10
2018-03-02T09:46:31.240Z,4.40
2018-03-02T09:51:53.780Z,4.30
2018-03-02T09:54:33.815Z,3.80
2018-03-02T09:57:12.410Z,3.80
2018-03-02T09:59:53.076Z,3.80
2018-03-02T10:02:32.764Z,3.80
2018-03-02T10:05:13.550Z,3.80
2018-03-02T10:07:56.224Z,3.80
2018-03-02T10:10:34.355Z,3.80
2018-03-02T10:13:13.028Z,3.50
2018-03-02T10:15:53.865Z,3.60
2018-03-02T10:18:33.404Z,3.50
2018-03-02T10:21:12.220Z,3.70
2018-03-02T10:23:51.027Z,3.50
2018-03-02T10:26:31.598Z,3.60
2018-03-02T10:29:12.907Z,3.50
2018-03-02T10:31:52.715Z,3.30
2018-03-02T10:34:32.455Z,3.50
2018-03-02T10:37:12.367Z,3.50
2018-03-02T10:39:52.167Z,3.50
2018-03-02T10:42:30.771Z,3.10
2018-03-02T10:45:08.910Z,3.20
2018-03-02T10:47:47.435Z,3.20
2018-03-02T10:50:27.946Z,3.30
2018-03-02T10:53:06.887Z,3.30
2018-03-02T10:55:45.704Z,3.50
2018-03-02T10:58:24.780Z,3.30
2018-03-02T11:01:09.388Z,3.20
2018-03-02T11:03:51.774Z,3.20
2018-03-02T11:06:31.138Z,3.30
2018-03-02T11:09:12.119Z,3.20
2018-03-02T11:11:51.049Z,3.30
2018-03-02T11:14:33.679Z,3.30
2018-03-02T11:17:12.398Z,3.40
2018-03-02T11:19:52.012Z,3.10
2018-03-02T11:22:30.525Z,3.10
2018-03-02T11:25:11.027Z,3.00
2018-03-02T11:27:51.576Z,3.00
2018-03-02T11:30:30.956Z,3.00
2018-03-02T11:33:11.230Z,3.00
2018-03-02T11:35:49.734Z,3.00
2018-03-02T11:38:28.352Z,3.20
2018-03-02T11:41:06.809Z,2.70
2018-03-02T11:43:46.351Z,2.70
2018-03-02T11:46:23.887Z,3.00
2018-03-02T11:49:04.549Z,2.80
2018-03-02T11:51:44.458Z,2.80
2018-03-02T11:54:26.018Z,2.70
2018-03-02T11:57:04.540Z,2.60
2018-03-02T11:59:43.231Z,2.70
2018-03-02T12:02:21.747Z,2.90
2018-03-02T12:05:00.276Z,2.80
2018-03-02T12:07:39.154Z,2.80
2018-03-02T12:10:18.814Z,2.50
2018-03-02T12:13:01.098Z,2.50
2018-03-02T12:15:40.515Z,2.70
2018-03-02T12:18:19.342Z,2.50
2018-03-02T12:21:00.052Z,2.50
2018-03-02T12:23:38.808Z,2.50
2018-03-02T12:26:18.127Z,2.60
2018-03-02T12:28:58.788Z,2.40
2018-03-02T12:31:39.387Z,2.50
2018-03-02T12:34:19.052Z,2.30
2018-03-02T12:36:59.550Z,2.50
2018-03-02T12:39:38.045Z,2.50
2018-03-02T12:42:18.823Z,2.50
2018-03-02T12:44:57.067Z,2.30
2018-03-02T12:47:35.740Z,2.30
2018-03-02T12:50:15.709Z,2.30
2018-03-02T12:52:57.500Z,2.30
2018-03-02T12:55:35.994Z,2.20
2018-03-02T12:58:15.711Z,2.10
2018-03-02T13:00:55.383Z,2.10
2018-03-02T13:03:34.073Z,2.20
2018-03-02T13:06:12.974Z,2.30
2018-03-02T13:08:55.585Z,2.20
2018-03-02T13:11:34.651Z,2.20
2018-03-02T13:14:13.907Z,2.00
2018-03-02T13:16:51.834Z,1.90
2018-03-02T13:19:30.599Z,2.00
2018-03-02T13:22:11.319Z,2.00
2018-03-02T13:24:49.752Z,1.90
2018-03-02T13:27:41.608Z,2.00
2018-03-02T13:30:21.264Z,2.00
2018-03-02T13:33:11.992Z,1.90
2018-03-02T13:35:50.552Z,2.00
2018-03-02T13:38:29.328Z,2.10
2018-03-02T13:41:36.020Z,1.80
2018-03-02T13:44:14.310Z,2.00
2018-03-02T13:46:52.828Z,1.70
2018-03-02T13:49:43.318Z,1.60
2018-03-02T13:52:22.057Z,1.80
2018-03-02T13:55:00.552Z,1.80
2018-03-02T13:58:01.277Z,1.80
2018-03-02T14:00:41.474Z,1.70
2018-03-02T14:03:36.124Z,1.50
2018-03-02T14:06:14.726Z,1.50
2018-03-02T14:08:54.350Z,1.20
2018-03-02T14:11:34.023Z,1.40
2018-03-02T14:14:13.696Z,1.30
2018-03-02T14:16:52.543Z,1.30
2018-03-02T14:19:32.410Z,1.50
2018-03-02T14:22:13.402Z,1.40
2018-03-02T14:24:54.049Z,1.50
2018-03-02T14:27:33.612Z,1.50
2018-03-02T14:30:14.524Z,1.50
2018-03-02T14:32:54.724Z,1.40
2018-03-02T14:35:37.303Z,1.30
2018-03-02T14:38:15.744Z,1.40
2018-03-02T14:40:54.206Z,1.50
2018-03-02T14:43:32.792Z,1.40
2018-03-02T14:46:11.446Z,1.60
2018-03-02T14:48:50.013Z,1.30
2018-03-02T14:51:28.698Z,1.50
2018-03-02T14:54:07.526Z,1.50
2018-03-02T14:56:49.142Z,1.70
2018-03-02T14:59:28.951Z,1.70
2018-03-02T15:02:09.562Z,1.70
2018-03-02T15:04:50.027Z,1.70
2018-03-02T15:07:26.605Z,2.00
2018-03-02T15:12:48.738Z,2.00
2018-03-02T15:15:27.430Z,1.80
2018-03-02T15:18:08.116Z,2.00
2018-03-02T15:20:48.970Z,2.10
2018-03-02T15:23:29.525Z,2.30
2018-03-02T15:26:09.116Z,2.30
2018-03-02T15:28:47.793Z,2.30
2018-03-02T15:31:26.375Z,2.30
2018-03-02T15:34:04.768Z,2.10
2018-03-02T15:36:43.403Z,2.30
2018-03-02T15:39:24.071Z,2.50
2018-03-02T15:42:02.666Z,2.30
2018-03-02T15:44:42.436Z,2.40
2018-03-02T15:47:22.882Z,2.70
2018-03-02T15:50:03.469Z,2.90
2018-03-02T15:52:45.996Z,3.00
2018-03-02T15:55:27.517Z,3.40
2018-03-02T15:58:06.119Z,3.30
2018-03-02T16:00:46.623Z,3.50
2018-03-02T16:03:26.243Z,3.90
2018-03-02T16:06:05.074Z,3.90
2018-03-02T16:08:43.526Z,3.80
2018-03-02T16:11:22.221Z,4.10
2018-03-02T16:14:02.662Z,4.10
2018-03-02T16:16:41.326Z,4.10
2018-03-02T16:19:20.767Z,4.20
2018-03-02T16:21:58.239Z,4.60
2018-03-02T16:24:37.006Z,4.40
2018-03-02T16:27:15.469Z,4.50
2018-03-02T16:29:54.165Z,4.50
2018-03-02T16:32:32.639Z,4.90
2018-03-02T16:35:15.167Z,4.80
2018-03-02T16:37:53.863Z,4.70
2018-03-02T16:40:32.313Z,5.10
2018-03-02T16:43:13.870Z,5.30
2018-03-02T16:45:55.309Z,5.00
2018-03-02T16:48:33.843Z,5.10
2018-03-02T16:51:11.528Z,5.60
2018-03-02T16:53:52.117Z,5.60
2018-03-02T16:56:30.626Z,5.70
2018-03-02T16:59:10.203Z,5.50
2018-03-02T17:01:50.959Z,5.90
2018-03-02T17:04:31.481Z,6.00
2018-03-02T17:07:12.051Z,6.30
2018-03-02T17:09:50.429Z,6.20
2018-03-02T17:12:29.407Z,6.20
2018-03-02T17:15:11.047Z,6.30
2018-03-02T17:17:49.512Z,6.20
2018-03-02T17:20:28.021Z,6.30
2018-03-02T17:23:07.659Z,6.40
2018-03-02T17:25:49.333Z,6.20
2018-03-02T17:28:28.056Z,6.20
2018-03-02T17:31:08.598Z,6.30
2018-03-02T17:33:47.238Z,6.20
2018-03-02T17:36:25.728Z,6.20
2018-03-02T17:39:08.266Z,6.30
2018-03-02T17:41:47.047Z,6.30
2018-03-02T17:44:25.750Z,6.40
2018-03-02T17:47:05.195Z,6.40
2018-03-02T17:49:44.039Z,6.50
2018-03-02T17:52:22.704Z,6.60
2018-03-02T17:55:03.442Z,6.50
2018-03-02T17:57:42.091Z,6.70
2018-03-02T18:00:22.895Z,7.10
2018-03-02T18:03:01.512Z,7.30
2018-03-02T18:05:40.983Z,7.30
2018-03-02T18:08:19.923Z,7.50
2018-03-02T18:10:59.334Z,7.60
2018-03-02T18:13:38.201Z,7.50
2018-03-02T18:16:24.219Z,7.90
2018-03-02T18:19:03.851Z,7.90
2018-03-02T18:21:48.889Z,7.70
2018-03-02T18:24:28.112Z,7.70
2018-03-02T18:27:05.592Z,8.00
2018-03-02T18:29:44.029Z,7.60
2018-03-02T18:32:23.374Z,8.10
2018-03-02T18:35:03.242Z,7.90
2018-03-02T18:37:45.904Z,8.00
2018-03-02T18:40:25.174Z,7.90
2018-03-02T18:43:04.700Z,7.90
2018-03-02T18:45:43.297Z,7.90
2018-03-02T18:48:21.821Z,7.50
2018-03-02T18:51:00.433Z,7.50
2018-03-02T18:53:41.982Z,7.50
2018-03-02T18:56:22.811Z,7.60
2018-03-02T18:59:02.110Z,7.40
2018-03-02T19:01:40.671Z,7.40
2018-03-02T19:04:21.313Z,7.50
2018-03-02T19:07:00.092Z,7.40
2018-03-02T19:09:38.684Z,7.40
2018-03-02T19:12:17.340Z,7.50
2018-03-02T19:14:56.039Z,7.60
2018-03-02T19:17:35.847Z,7.60
2018-03-02T19:20:17.419Z,8.10
2018-03-02T19:22:58.894Z,8.30
2018-03-02T19:25:38.247Z,8.30
2018-03-02T19:28:17.118Z,8.80
2018-03-02T19:30:55.590Z,9.00
2018-03-02T19:33:35.177Z,9.70
2018-03-02T19:36:15.707Z,9.40
2018-03-02T19:38:56.133Z,9.60
2018-03-02T19:41:37.044Z,10.10
2018-03-02T19:44:14.233Z,10.30
2018-03-02T19:46:52.855Z,10.60
2018-03-02T19:49:31.393Z,10.80
2018-03-02T19:52:11.708Z,11.00
2018-03-02T19:54:51.292Z,10.90
2018-03-02T19:57:35.292Z,10.80
2018-03-02T20:00:14.430Z,10.60
2018-03-02T20:05:35.551Z,10.50
2018-03-02T20:08:13.127Z,10.10
2018-03-02T20:10:53.968Z,10.20
2018-03-02T20:13:34.555Z,10.30
2018-03-02T20:16:13.137Z,10.40
2018-03-02T20:18:53.457Z,10.50
2018-03-02T20:21:31.869Z,10.50
2018-03-02T20:24:12.484Z,10.40
2018-03-02T20:26:53.720Z,10.20
2018-03-02T20:29:32.679Z,10.20
2018-03-02T20:32:11.102Z,10.20
2018-03-02T20:37:28.374Z,10.10
2018-03-02T20:40:07.228Z,10.20
2018-03-02T20:42:46.056Z,10.30
2018-03-02T20:45:26.891Z,10.30
2018-03-02T20:48:07.511Z,10.40
2018-03-02T20:50:46.281Z,10.00
2018-03-02T20:53:24.940Z,9.80
2018-03-02T20:56:03.393Z,9.60
2018-03-02T20:58:43.126Z,9.90
2018-03-02T21:01:21.928Z,10.10
2018-03-02T21:04:00.440Z,10.30
2018-03-02T21:06:39.838Z,10.60
2018-03-02T21:09:19.558Z,11.10
2018-03-02T21:11:58.306Z,11.00
2018-03-02T21:14:36.818Z,11.40
2018-03-02T21:17:15.453Z,11.20
2018-03-02T21:19:54.025Z,11.40
2018-03-02T21:22:33.027Z,11.30
2018-03-02T21:25:11.617Z,11.40
2018-03-02T21:27:50.042Z,11.20
2018-03-02T21:30:31.592Z,11.20
2018-03-02T21:33:10.001Z,11.40
2018-03-02T21:35:47.178Z,10.60
2018-03-02T21:38:26.160Z,10.50
2018-03-02T21:41:04.798Z,10.40
2018-03-02T21:43:43.370Z,10.40
2018-03-02T21:46:23.653Z,10.50
2018-03-02T21:49:02.291Z,10.60
2018-03-02T21:51:44.792Z,10.50
2018-03-02T21:54:23.264Z,10.50
2018-03-02T21:57:01.707Z,10.80
2018-03-02T21:59:40.310Z,10.90
2018-03-02T22:02:18.732Z,10.50
2018-03-02T22:05:01.312Z,10.50
2018-03-02T22:07:41.930Z,10.50
2018-03-02T22:10:20.680Z,10.60
2018-03-02T22:12:59.570Z,10.50
2018-03-02T22:15:37.232Z,10.50
2018-03-02T22:18:16.553Z,10.50
2018-03-02T22:20:55.154Z,10.30
2018-03-02T22:23:35.786Z,10.10
2018-03-02T22:26:16.478Z,10.00
2018-03-02T22:28:55.972Z,10.50
2018-03-02T22:31:35.772Z,10.50
2018-03-02T22:34:14.754Z,10.30
2018-03-02T22:36:55.007Z,10.20
2018-03-02T22:39:33.838Z,10.30
2018-03-02T22:42:14.625Z,10.00
2018-03-02T22:44:53.407Z,10.30
2018-03-02T22:47:32.113Z,10.40
2018-03-02T22:50:11.022Z,10.20
2018-03-02T22:52:49.753Z,10.20
2018-03-02T22:55:28.509Z,10.40
2018-03-02T22:58:09.175Z,10.00
2018-03-02T23:00:49.845Z,10.40
2018-03-02T23:03:28.657Z,10.50
2018-03-02T23:06:08.278Z,10.30
2018-03-02T23:08:48.100Z,10.30
2018-03-02T23:11:26.543Z,10.30
2018-03-02T23:14:04.155Z,10.40
2018-03-02T23:16:45.191Z,10.50
2018-03-02T23:19:23.829Z,10.40
2018-03-02T23:22:06.494Z,10.60
2018-03-02T23:24:46.074Z,10.60
2018-03-02T23:27:24.703Z,10.40
2018-03-02T23:30:03.349Z,10.50
2018-03-02T23:32:42.157Z,10.40
2018-03-02T23:35:22.986Z,10.90
2018-03-02T23:38:05.000Z,10.90
2018-03-02T23:40:47.750Z,11.10
2018-03-02T23:43:34.791Z,11.20
2018-03-02T23:46:13.000Z,11.20
2018-03-02T23:48:51.536Z,11.20
2018-03-02T23:51:30.264Z,11.20
2018-03-02T23:54:10.892Z,11.10
2018-03-02T23:56:49.689Z,11.10
2018-03-02T23:59:28.169Z,11.00
